sensor_id;sensor_type;location;lat;lon;timestamp;P1;durP1;ratioP1;P2;durP2;ratioP2
62401;SDS011;48440;51.224;22.506;2024-01-30T00:01:18;16.13;;;8.57;;
62401;SDS011;48440;51.224;22.506;2024-01-30T00:03:44;16.25;;;8.57;;
62401;SDS011;48440;51.224;22.506;2024-01-30T00:06:09;15.02;;;7.78;;
62401;SDS011;48440;51.224;22.506;2024-01-30T00:08:34;16.27;;;8.38;;
62401;SDS011;48440;51.224;22.506;2024-01-30T00:11:00;15.93;;;8.38;;
62401;SDS011;48440;51.224;22.506;2024-01-30T00:13:26;13.45;;;7.43;;
62401;SDS011;48440;51.224;22.506;2024-01-30T00:15:51;14.73;;;8.50;;
62401;SDS011;48440;51.224;22.506;2024-01-30T00:18:16;14.13;;;7.82;;
62401;SDS011;48440;51.224;22.506;2024-01-30T00:20:42;12.20;;;7.60;;
62401;SDS011;48440;51.224;22.506;2024-01-30T00:23:08;14.55;;;7.93;;
62401;SDS011;48440;51.224;22.506;2024-01-30T00:25:33;14.90;;;8.38;;
62401;SDS011;48440;51.224;22.506;2024-01-30T00:27:59;15.48;;;8.35;;
62401;SDS011;48440;51.224;22.506;2024-01-30T00:30:24;13.70;;;7.57;;
62401;SDS011;48440;51.224;22.506;2024-01-30T00:32:50;14.32;;;7.95;;
62401;SDS011;48440;51.224;22.506;2024-01-30T00:35:15;14.43;;;8.27;;
62401;SDS011;48440;51.224;22.506;2024-01-30T00:37:41;16.80;;;8.93;;
62401;SDS011;48440;51.224;22.506;2024-01-30T00:40:07;16.98;;;8.80;;
62401;SDS011;48440;51.224;22.506;2024-01-30T00:42:35;14.38;;;8.07;;
62401;SDS011;48440;51.224;22.506;2024-01-30T00:45:00;15.75;;;8.07;;
62401;SDS011;48440;51.224;22.506;2024-01-30T00:47:26;14.88;;;7.97;;
62401;SDS011;48440;51.224;22.506;2024-01-30T00:49:51;15.10;;;8.73;;
62401;SDS011;48440;51.224;22.506;2024-01-30T00:52:17;13.07;;;7.32;;
62401;SDS011;48440;51.224;22.506;2024-01-30T00:54:48;14.25;;;8.07;;
62401;SDS011;48440;51.224;22.506;2024-01-30T00:57:24;15.45;;;7.80;;
62401;SDS011;48440;51.224;22.506;2024-01-30T00:59:50;16.35;;;8.13;;
62401;SDS011;48440;51.224;22.506;2024-01-30T01:02:15;17.30;;;8.25;;
62401;SDS011;48440;51.224;22.506;2024-01-30T01:04:42;14.82;;;8.00;;
62401;SDS011;48440;51.224;22.506;2024-01-30T01:07:08;18.00;;;8.38;;
62401;SDS011;48440;51.224;22.506;2024-01-30T01:09:33;16.80;;;8.27;;
62401;SDS011;48440;51.224;22.506;2024-01-30T01:11:59;15.88;;;8.43;;
62401;SDS011;48440;51.224;22.506;2024-01-30T01:14:24;13.05;;;7.00;;
62401;SDS011;48440;51.224;22.506;2024-01-30T01:16:50;15.75;;;7.28;;
62401;SDS011;48440;51.224;22.506;2024-01-30T01:19:15;15.68;;;8.10;;
62401;SDS011;48440;51.224;22.506;2024-01-30T01:21:41;12.32;;;6.95;;
62401;SDS011;48440;51.224;22.506;2024-01-30T01:24:06;17.73;;;8.27;;
62401;SDS011;48440;51.224;22.506;2024-01-30T01:26:32;16.42;;;8.55;;
62401;SDS011;48440;51.224;22.506;2024-01-30T01:28:57;14.48;;;7.47;;
62401;SDS011;48440;51.224;22.506;2024-01-30T01:31:23;15.15;;;7.75;;
62401;SDS011;48440;51.224;22.506;2024-01-30T01:33:49;15.27;;;7.32;;
62401;SDS011;48440;51.224;22.506;2024-01-30T01:36:15;17.70;;;7.70;;
62401;SDS011;48440;51.224;22.506;2024-01-30T01:38:40;15.05;;;7.47;;
62401;SDS011;48440;51.224;22.506;2024-01-30T01:41:06;16.80;;;8.63;;
62401;SDS011;48440;51.224;22.506;2024-01-30T01:43:31;16.42;;;8.18;;
62401;SDS011;48440;51.224;22.506;2024-01-30T01:45:57;15.52;;;7.78;;
62401;SDS011;48440;51.224;22.506;2024-01-30T01:48:23;19.60;;;8.52;;
62401;SDS011;48440;51.224;22.506;2024-01-30T01:50:48;16.45;;;8.20;;
62401;SDS011;48440;51.224;22.506;2024-01-30T01:53:14;15.85;;;7.82;;
62401;SDS011;48440;51.224;22.506;2024-01-30T01:55:40;18.38;;;8.00;;
62401;SDS011;48440;51.224;22.506;2024-01-30T01:58:06;17.40;;;7.95;;
62401;SDS011;48440;51.224;22.506;2024-01-30T02:00:33;16.13;;;7.45;;
62401;SDS011;48440;51.224;22.506;2024-01-30T02:03:01;17.15;;;7.97;;
62401;SDS011;48440;51.224;22.506;2024-01-30T02:05:29;18.98;;;8.50;;
62401;SDS011;48440;51.224;22.506;2024-01-30T02:07:55;17.55;;;8.20;;
62401;SDS011;48440;51.224;22.506;2024-01-30T02:10:21;15.65;;;7.65;;
62401;SDS011;48440;51.224;22.506;2024-01-30T02:12:46;14.27;;;7.75;;
62401;SDS011;48440;51.224;22.506;2024-01-30T02:15:13;18.52;;;8.45;;
62401;SDS011;48440;51.224;22.506;2024-01-30T02:17:39;17.52;;;8.15;;
62401;SDS011;48440;51.224;22.506;2024-01-30T02:20:04;17.60;;;7.82;;
62401;SDS011;48440;51.224;22.506;2024-01-30T02:22:30;14.98;;;7.63;;
62401;SDS011;48440;51.224;22.506;2024-01-30T02:24:59;17.30;;;7.63;;
62401;SDS011;48440;51.224;22.506;2024-01-30T02:27:24;19.83;;;8.60;;
62401;SDS011;48440;51.224;22.506;2024-01-30T02:29:50;17.25;;;8.00;;
62401;SDS011;48440;51.224;22.506;2024-01-30T02:32:15;17.92;;;7.88;;
62401;SDS011;48440;51.224;22.506;2024-01-30T02:34:41;16.52;;;8.02;;
62401;SDS011;48440;51.224;22.506;2024-01-30T02:37:06;17.00;;;8.07;;
62401;SDS011;48440;51.224;22.506;2024-01-30T02:39:31;17.08;;;8.07;;
62401;SDS011;48440;51.224;22.506;2024-01-30T02:41:57;18.45;;;7.80;;
62401;SDS011;48440;51.224;22.506;2024-01-30T02:44:22;20.38;;;8.18;;
62401;SDS011;48440;51.224;22.506;2024-01-30T02:46:47;15.63;;;7.93;;
62401;SDS011;48440;51.224;22.506;2024-01-30T02:49:13;16.98;;;7.65;;
62401;SDS011;48440;51.224;22.506;2024-01-30T02:51:38;17.63;;;8.18;;
62401;SDS011;48440;51.224;22.506;2024-01-30T02:54:04;19.02;;;8.35;;
62401;SDS011;48440;51.224;22.506;2024-01-30T02:56:29;17.80;;;7.53;;
62401;SDS011;48440;51.224;22.506;2024-01-30T02:58:54;15.10;;;7.32;;
62401;SDS011;48440;51.224;22.506;2024-01-30T03:01:20;12.48;;;7.00;;
62401;SDS011;48440;51.224;22.506;2024-01-30T03:03:45;14.57;;;7.68;;
62401;SDS011;48440;51.224;22.506;2024-01-30T03:06:11;16.95;;;7.30;;
62401;SDS011;48440;51.224;22.506;2024-01-30T03:08:36;16.90;;;7.57;;
62401;SDS011;48440;51.224;22.506;2024-01-30T03:11:02;16.90;;;7.90;;
62401;SDS011;48440;51.224;22.506;2024-01-30T03:13:28;17.05;;;8.18;;
62401;SDS011;48440;51.224;22.506;2024-01-30T03:15:53;14.57;;;7.15;;
62401;SDS011;48440;51.224;22.506;2024-01-30T03:18:19;16.35;;;7.57;;
62401;SDS011;48440;51.224;22.506;2024-01-30T03:20:44;13.45;;;7.47;;
62401;SDS011;48440;51.224;22.506;2024-01-30T03:23:09;12.73;;;6.88;;
62401;SDS011;48440;51.224;22.506;2024-01-30T03:25:35;12.05;;;7.15;;
62401;SDS011;48440;51.224;22.506;2024-01-30T03:28:00;14.45;;;7.43;;
62401;SDS011;48440;51.224;22.506;2024-01-30T03:30:26;15.05;;;6.90;;
62401;SDS011;48440;51.224;22.506;2024-01-30T03:32:51;14.07;;;6.85;;
62401;SDS011;48440;51.224;22.506;2024-01-30T03:35:18;16.67;;;7.30;;
62401;SDS011;48440;51.224;22.506;2024-01-30T03:37:44;17.60;;;7.43;;
62401;SDS011;48440;51.224;22.506;2024-01-30T03:40:09;14.60;;;7.25;;
62401;SDS011;48440;51.224;22.506;2024-01-30T03:42:35;12.23;;;6.82;;
62401;SDS011;48440;51.224;22.506;2024-01-30T03:45:01;12.88;;;6.45;;
62401;SDS011;48440;51.224;22.506;2024-01-30T03:47:27;13.50;;;7.00;;
62401;SDS011;48440;51.224;22.506;2024-01-30T03:49:53;14.57;;;7.25;;
62401;SDS011;48440;51.224;22.506;2024-01-30T03:52:18;16.75;;;8.23;;
62401;SDS011;48440;51.224;22.506;2024-01-30T03:54:44;16.73;;;7.50;;
62401;SDS011;48440;51.224;22.506;2024-01-30T03:57:09;15.95;;;7.55;;
62401;SDS011;48440;51.224;22.506;2024-01-30T03:59:35;14.88;;;6.90;;
62401;SDS011;48440;51.224;22.506;2024-01-30T04:02:00;16.35;;;7.60;;
62401;SDS011;48440;51.224;22.506;2024-01-30T04:04:25;13.93;;;7.22;;
62401;SDS011;48440;51.224;22.506;2024-01-30T04:06:51;14.73;;;7.20;;
62401;SDS011;48440;51.224;22.506;2024-01-30T04:09:16;12.55;;;6.60;;
62401;SDS011;48440;51.224;22.506;2024-01-30T04:11:42;16.13;;;7.53;;
62401;SDS011;48440;51.224;22.506;2024-01-30T04:14:07;18.00;;;8.40;;
62401;SDS011;48440;51.224;22.506;2024-01-30T04:16:33;12.95;;;6.57;;
62401;SDS011;48440;51.224;22.506;2024-01-30T04:18:59;16.25;;;7.70;;
62401;SDS011;48440;51.224;22.506;2024-01-30T04:21:24;13.15;;;7.18;;
62401;SDS011;48440;51.224;22.506;2024-01-30T04:23:50;15.68;;;7.50;;
62401;SDS011;48440;51.224;22.506;2024-01-30T04:26:16;11.85;;;6.28;;
62401;SDS011;48440;51.224;22.506;2024-01-30T04:28:42;12.55;;;7.30;;
62401;SDS011;48440;51.224;22.506;2024-01-30T04:31:09;13.15;;;7.18;;
62401;SDS011;48440;51.224;22.506;2024-01-30T04:33:34;13.93;;;7.00;;
62401;SDS011;48440;51.224;22.506;2024-01-30T04:36:00;14.20;;;7.28;;
62401;SDS011;48440;51.224;22.506;2024-01-30T04:38:25;18.20;;;7.65;;
62401;SDS011;48440;51.224;22.506;2024-01-30T04:40:50;15.13;;;7.00;;
62401;SDS011;48440;51.224;22.506;2024-01-30T04:43:16;15.63;;;7.05;;
62401;SDS011;48440;51.224;22.506;2024-01-30T04:45:41;13.45;;;6.95;;
62401;SDS011;48440;51.224;22.506;2024-01-30T04:48:07;19.63;;;7.88;;
62401;SDS011;48440;51.224;22.506;2024-01-30T04:50:32;12.60;;;6.53;;
62401;SDS011;48440;51.224;22.506;2024-01-30T04:52:58;14.75;;;6.45;;
62401;SDS011;48440;51.224;22.506;2024-01-30T04:55:23;11.45;;;5.43;;
62401;SDS011;48440;51.224;22.506;2024-01-30T04:57:49;13.40;;;6.68;;
62401;SDS011;48440;51.224;22.506;2024-01-30T05:00:14;13.50;;;6.55;;
62401;SDS011;48440;51.224;22.506;2024-01-30T05:02:40;16.05;;;6.47;;
62401;SDS011;48440;51.224;22.506;2024-01-30T05:05:05;13.30;;;6.75;;
62401;SDS011;48440;51.224;22.506;2024-01-30T05:07:31;13.73;;;6.03;;
62401;SDS011;48440;51.224;22.506;2024-01-30T05:09:56;15.55;;;6.82;;
62401;SDS011;48440;51.224;22.506;2024-01-30T05:12:22;14.80;;;7.38;;
62401;SDS011;48440;51.224;22.506;2024-01-30T05:14:47;13.40;;;6.90;;
62401;SDS011;48440;51.224;22.506;2024-01-30T05:17:13;14.80;;;6.38;;
62401;SDS011;48440;51.224;22.506;2024-01-30T05:19:38;18.50;;;6.80;;
62401;SDS011;48440;51.224;22.506;2024-01-30T05:22:04;15.88;;;6.93;;
62401;SDS011;48440;51.224;22.506;2024-01-30T05:24:29;11.63;;;6.43;;
62401;SDS011;48440;51.224;22.506;2024-01-30T05:26:55;16.00;;;7.03;;
62401;SDS011;48440;51.224;22.506;2024-01-30T05:29:20;10.88;;;6.10;;
62401;SDS011;48440;51.224;22.506;2024-01-30T05:31:46;11.50;;;6.18;;
62401;SDS011;48440;51.224;22.506;2024-01-30T05:34:11;12.50;;;6.18;;
62401;SDS011;48440;51.224;22.506;2024-01-30T05:36:37;13.35;;;6.00;;
62401;SDS011;48440;51.224;22.506;2024-01-30T05:39:02;15.05;;;6.15;;
62401;SDS011;48440;51.224;22.506;2024-01-30T05:41:27;12.25;;;6.13;;
62401;SDS011;48440;51.224;22.506;2024-01-30T05:43:53;15.63;;;7.28;;
62401;SDS011;48440;51.224;22.506;2024-01-30T05:46:18;15.35;;;6.43;;
62401;SDS011;48440;51.224;22.506;2024-01-30T05:48:44;13.05;;;7.00;;
62401;SDS011;48440;51.224;22.506;2024-01-30T05:51:10;14.45;;;6.55;;
62401;SDS011;48440;51.224;22.506;2024-01-30T05:53:35;15.38;;;6.50;;
62401;SDS011;48440;51.224;22.506;2024-01-30T05:56:01;14.38;;;6.43;;
62401;SDS011;48440;51.224;22.506;2024-01-30T05:58:27;11.13;;;6.30;;
62401;SDS011;48440;51.224;22.506;2024-01-30T06:00:53;14.48;;;6.28;;
62401;SDS011;48440;51.224;22.506;2024-01-30T06:03:18;11.93;;;5.78;;
62401;SDS011;48440;51.224;22.506;2024-01-30T06:05:44;10.65;;;6.00;;
62401;SDS011;48440;51.224;22.506;2024-01-30T06:08:09;11.07;;;6.15;;
62401;SDS011;48440;51.224;22.506;2024-01-30T06:10:34;11.85;;;6.43;;
62401;SDS011;48440;51.224;22.506;2024-01-30T06:13:00;12.23;;;6.22;;
62401;SDS011;48440;51.224;22.506;2024-01-30T06:15:25;12.63;;;6.07;;
62401;SDS011;48440;51.224;22.506;2024-01-30T06:17:51;10.45;;;5.95;;
62401;SDS011;48440;51.224;22.506;2024-01-30T06:20:16;11.25;;;6.32;;
62401;SDS011;48440;51.224;22.506;2024-01-30T06:22:43;14.98;;;6.60;;
62401;SDS011;48440;51.224;22.506;2024-01-30T06:25:08;12.55;;;6.55;;
62401;SDS011;48440;51.224;22.506;2024-01-30T06:27:34;11.63;;;6.35;;
62401;SDS011;48440;51.224;22.506;2024-01-30T06:29:59;11.13;;;5.75;;
62401;SDS011;48440;51.224;22.506;2024-01-30T06:32:26;13.13;;;6.20;;
62401;SDS011;48440;51.224;22.506;2024-01-30T06:34:53;12.55;;;6.18;;
62401;SDS011;48440;51.224;22.506;2024-01-30T06:37:19;12.43;;;5.82;;
62401;SDS011;48440;51.224;22.506;2024-01-30T06:39:44;16.95;;;6.82;;
62401;SDS011;48440;51.224;22.506;2024-01-30T06:42:09;15.50;;;6.97;;
62401;SDS011;48440;51.224;22.506;2024-01-30T06:44:36;13.73;;;6.65;;
62401;SDS011;48440;51.224;22.506;2024-01-30T06:47:02;11.77;;;6.13;;
62401;SDS011;48440;51.224;22.506;2024-01-30T06:49:27;12.98;;;6.35;;
62401;SDS011;48440;51.224;22.506;2024-01-30T06:51:53;12.35;;;6.10;;
62401;SDS011;48440;51.224;22.506;2024-01-30T06:54:18;10.35;;;5.78;;
62401;SDS011;48440;51.224;22.506;2024-01-30T06:56:44;13.73;;;6.28;;
62401;SDS011;48440;51.224;22.506;2024-01-30T06:59:09;11.45;;;5.85;;
62401;SDS011;48440;51.224;22.506;2024-01-30T07:01:35;11.95;;;6.25;;
62401;SDS011;48440;51.224;22.506;2024-01-30T07:04:00;9.43;;;6.22;;
62401;SDS011;48440;51.224;22.506;2024-01-30T07:06:25;8.93;;;5.28;;
62401;SDS011;48440;51.224;22.506;2024-01-30T07:08:51;11.27;;;5.97;;
62401;SDS011;48440;51.224;22.506;2024-01-30T07:11:19;10.50;;;5.70;;
62401;SDS011;48440;51.224;22.506;2024-01-30T07:13:50;9.82;;;5.40;;
62401;SDS011;48440;51.224;22.506;2024-01-30T07:16:15;13.70;;;6.60;;
62401;SDS011;48440;51.224;22.506;2024-01-30T07:18:41;11.50;;;6.28;;
62401;SDS011;48440;51.224;22.506;2024-01-30T07:21:07;11.10;;;5.82;;
62401;SDS011;48440;51.224;22.506;2024-01-30T07:23:32;14.18;;;6.47;;
62401;SDS011;48440;51.224;22.506;2024-01-30T07:26:00;14.82;;;6.72;;
62401;SDS011;48440;51.224;22.506;2024-01-30T07:28:26;20.98;;;8.20;;
62401;SDS011;48440;51.224;22.506;2024-01-30T07:30:51;13.38;;;6.63;;
62401;SDS011;48440;51.224;22.506;2024-01-30T07:33:17;12.23;;;6.35;;
62401;SDS011;48440;51.224;22.506;2024-01-30T07:35:43;12.57;;;6.05;;
62401;SDS011;48440;51.224;22.506;2024-01-30T07:38:08;12.35;;;7.03;;
62401;SDS011;48440;51.224;22.506;2024-01-30T07:40:34;13.45;;;6.28;;
62401;SDS011;48440;51.224;22.506;2024-01-30T07:42:59;15.32;;;6.95;;
62401;SDS011;48440;51.224;22.506;2024-01-30T07:45:26;13.65;;;7.13;;
62401;SDS011;48440;51.224;22.506;2024-01-30T07:47:52;13.43;;;6.68;;
62401;SDS011;48440;51.224;22.506;2024-01-30T07:50:18;17.00;;;7.63;;
62401;SDS011;48440;51.224;22.506;2024-01-30T07:52:44;13.38;;;6.82;;
62401;SDS011;48440;51.224;22.506;2024-01-30T07:55:09;15.88;;;6.75;;
62401;SDS011;48440;51.224;22.506;2024-01-30T07:57:35;15.02;;;7.32;;
62401;SDS011;48440;51.224;22.506;2024-01-30T08:00:04;13.07;;;6.75;;
62401;SDS011;48440;51.224;22.506;2024-01-30T08:02:32;14.23;;;7.30;;
62401;SDS011;48440;51.224;22.506;2024-01-30T08:04:57;15.02;;;6.78;;
62401;SDS011;48440;51.224;22.506;2024-01-30T08:07:23;15.98;;;7.00;;
62401;SDS011;48440;51.224;22.506;2024-01-30T08:09:48;16.98;;;7.03;;
62401;SDS011;48440;51.224;22.506;2024-01-30T08:12:14;13.40;;;6.13;;
62401;SDS011;48440;51.224;22.506;2024-01-30T08:14:39;12.07;;;6.45;;
62401;SDS011;48440;51.224;22.506;2024-01-30T08:17:06;12.98;;;6.70;;
62401;SDS011;48440;51.224;22.506;2024-01-30T08:19:32;12.13;;;6.43;;
62401;SDS011;48440;51.224;22.506;2024-01-30T08:21:58;13.18;;;6.28;;
62401;SDS011;48440;51.224;22.506;2024-01-30T08:24:23;16.52;;;6.93;;
62401;SDS011;48440;51.224;22.506;2024-01-30T08:26:49;14.07;;;7.15;;
62401;SDS011;48440;51.224;22.506;2024-01-30T08:29:14;15.15;;;7.65;;
62401;SDS011;48440;51.224;22.506;2024-01-30T08:31:40;14.32;;;6.85;;
62401;SDS011;48440;51.224;22.506;2024-01-30T08:34:05;13.35;;;6.65;;
62401;SDS011;48440;51.224;22.506;2024-01-30T08:36:31;13.63;;;7.15;;
62401;SDS011;48440;51.224;22.506;2024-01-30T08:38:56;13.70;;;6.85;;
62401;SDS011;48440;51.224;22.506;2024-01-30T08:41:22;11.30;;;6.43;;
62401;SDS011;48440;51.224;22.506;2024-01-30T08:43:47;13.68;;;6.75;;
62401;SDS011;48440;51.224;22.506;2024-01-30T08:46:13;14.50;;;7.50;;
62401;SDS011;48440;51.224;22.506;2024-01-30T08:48:38;13.85;;;7.13;;
62401;SDS011;48440;51.224;22.506;2024-01-30T08:51:03;11.98;;;7.28;;
62401;SDS011;48440;51.224;22.506;2024-01-30T08:53:33;12.88;;;6.90;;
62401;SDS011;48440;51.224;22.506;2024-01-30T08:55:58;15.32;;;7.30;;
62401;SDS011;48440;51.224;22.506;2024-01-30T08:58:24;16.65;;;6.95;;
62401;SDS011;48440;51.224;22.506;2024-01-30T09:00:49;14.32;;;7.18;;
62401;SDS011;48440;51.224;22.506;2024-01-30T09:03:16;14.05;;;6.82;;
62401;SDS011;48440;51.224;22.506;2024-01-30T09:05:42;14.65;;;7.43;;
62401;SDS011;48440;51.224;22.506;2024-01-30T09:08:07;13.30;;;7.75;;
62401;SDS011;48440;51.224;22.506;2024-01-30T09:10:33;13.35;;;7.22;;
62401;SDS011;48440;51.224;22.506;2024-01-30T09:12:58;14.07;;;7.28;;
62401;SDS011;48440;51.224;22.506;2024-01-30T09:15:24;13.13;;;7.60;;
62401;SDS011;48440;51.224;22.506;2024-01-30T09:17:49;15.23;;;8.00;;
62401;SDS011;48440;51.224;22.506;2024-01-30T09:20:15;12.93;;;7.30;;
62401;SDS011;48440;51.224;22.506;2024-01-30T09:22:41;11.63;;;6.95;;
62401;SDS011;48440;51.224;22.506;2024-01-30T09:25:06;14.07;;;7.07;;
62401;SDS011;48440;51.224;22.506;2024-01-30T09:27:32;13.52;;;6.75;;
62401;SDS011;48440;51.224;22.506;2024-01-30T09:29:58;11.95;;;6.93;;
62401;SDS011;48440;51.224;22.506;2024-01-30T09:32:23;11.18;;;7.18;;
62401;SDS011;48440;51.224;22.506;2024-01-30T09:34:49;12.35;;;7.43;;
62401;SDS011;48440;51.224;22.506;2024-01-30T09:37:15;12.23;;;6.93;;
62401;SDS011;48440;51.224;22.506;2024-01-30T09:39:43;12.27;;;7.10;;
62401;SDS011;48440;51.224;22.506;2024-01-30T09:44:43;13.15;;;7.05;;
62401;SDS011;48440;51.224;22.506;2024-01-30T09:47:10;12.15;;;7.43;;
62401;SDS011;48440;51.224;22.506;2024-01-30T09:49:36;13.48;;;7.75;;
62401;SDS011;48440;51.224;22.506;2024-01-30T09:52:03;11.52;;;7.15;;
62401;SDS011;48440;51.224;22.506;2024-01-30T09:54:31;10.85;;;7.00;;
62401;SDS011;48440;51.224;22.506;2024-01-30T09:57:04;11.50;;;7.68;;
62401;SDS011;48440;51.224;22.506;2024-01-30T09:59:30;11.90;;;7.90;;
62401;SDS011;48440;51.224;22.506;2024-01-30T10:01:57;10.30;;;6.93;;
62401;SDS011;48440;51.224;22.506;2024-01-30T10:04:23;10.85;;;7.35;;
62401;SDS011;48440;51.224;22.506;2024-01-30T10:06:49;13.52;;;8.30;;
62401;SDS011;48440;51.224;22.506;2024-01-30T10:09:15;12.15;;;7.35;;
62401;SDS011;48440;51.224;22.506;2024-01-30T10:11:41;13.68;;;7.97;;
62401;SDS011;48440;51.224;22.506;2024-01-30T10:14:06;13.52;;;8.30;;
62401;SDS011;48440;51.224;22.506;2024-01-30T10:16:33;11.15;;;7.32;;
62401;SDS011;48440;51.224;22.506;2024-01-30T10:19:00;12.57;;;7.45;;
62401;SDS011;48440;51.224;22.506;2024-01-30T10:21:36;11.40;;;7.30;;
62401;SDS011;48440;51.224;22.506;2024-01-30T10:24:02;12.57;;;7.95;;
62401;SDS011;48440;51.224;22.506;2024-01-30T10:26:33;12.13;;;7.55;;
62401;SDS011;48440;51.224;22.506;2024-01-30T10:29:04;11.57;;;7.72;;
62401;SDS011;48440;51.224;22.506;2024-01-30T10:31:30;13.13;;;7.72;;
62401;SDS011;48440;51.224;22.506;2024-01-30T10:34:02;11.80;;;8.23;;
62401;SDS011;48440;51.224;22.506;2024-01-30T10:36:31;12.73;;;8.07;;
62401;SDS011;48440;51.224;22.506;2024-01-30T10:41:56;13.55;;;7.95;;
62401;SDS011;48440;51.224;22.506;2024-01-30T10:44:28;14.73;;;8.02;;
62401;SDS011;48440;51.224;22.506;2024-01-30T10:50:13;15.13;;;8.10;;
62401;SDS011;48440;51.224;22.506;2024-01-30T10:52:41;11.77;;;7.57;;
62401;SDS011;48440;51.224;22.506;2024-01-30T10:58:18;15.30;;;8.45;;
62401;SDS011;48440;51.224;22.506;2024-01-30T11:00:46;12.95;;;7.63;;
62401;SDS011;48440;51.224;22.506;2024-01-30T11:03:12;13.98;;;7.72;;
62401;SDS011;48440;51.224;22.506;2024-01-30T11:05:50;13.20;;;7.70;;
62401;SDS011;48440;51.224;22.506;2024-01-30T11:11:09;15.15;;;7.32;;
62401;SDS011;48440;51.224;22.506;2024-01-30T11:13:49;14.38;;;8.20;;
62401;SDS011;48440;51.224;22.506;2024-01-30T11:16:19;11.07;;;7.00;;
62401;SDS011;48440;51.224;22.506;2024-01-30T11:18:49;11.55;;;6.93;;
62401;SDS011;48440;51.224;22.506;2024-01-30T11:21:36;15.52;;;8.30;;
62401;SDS011;48440;51.224;22.506;2024-01-30T11:24:07;13.90;;;8.15;;
62401;SDS011;48440;51.224;22.506;2024-01-30T11:26:33;12.32;;;7.35;;
62401;SDS011;48440;51.224;22.506;2024-01-30T11:29:02;15.13;;;7.85;;
62401;SDS011;48440;51.224;22.506;2024-01-30T11:31:51;11.48;;;7.20;;
62401;SDS011;48440;51.224;22.506;2024-01-30T11:34:19;13.05;;;7.65;;
62401;SDS011;48440;51.224;22.506;2024-01-30T11:36:46;15.73;;;7.40;;
62401;SDS011;48440;51.224;22.506;2024-01-30T11:39:18;14.95;;;8.00;;
62401;SDS011;48440;51.224;22.506;2024-01-30T11:41:45;15.02;;;7.80;;
62401;SDS011;48440;51.224;22.506;2024-01-30T11:44:11;15.02;;;8.30;;
62401;SDS011;48440;51.224;22.506;2024-01-30T11:46:37;14.93;;;8.18;;
62401;SDS011;48440;51.224;22.506;2024-01-30T11:49:03;16.38;;;8.30;;
62401;SDS011;48440;51.224;22.506;2024-01-30T11:51:46;14.32;;;7.80;;
62401;SDS011;48440;51.224;22.506;2024-01-30T11:54:13;14.50;;;7.90;;
62401;SDS011;48440;51.224;22.506;2024-01-30T11:56:39;12.85;;;7.95;;
62401;SDS011;48440;51.224;22.506;2024-01-30T11:59:05;13.90;;;7.97;;
62401;SDS011;48440;51.224;22.506;2024-01-30T12:01:31;12.30;;;8.00;;
62401;SDS011;48440;51.224;22.506;2024-01-30T12:03:58;12.82;;;7.45;;
62401;SDS011;48440;51.224;22.506;2024-01-30T12:06:24;14.38;;;7.82;;
62401;SDS011;48440;51.224;22.506;2024-01-30T12:11:28;11.40;;;7.78;;
62401;SDS011;48440;51.224;22.506;2024-01-30T12:13:55;10.82;;;6.82;;
62401;SDS011;48440;51.224;22.506;2024-01-30T12:16:21;12.38;;;7.15;;
62401;SDS011;48440;51.224;22.506;2024-01-30T12:18:47;11.60;;;7.22;;
62401;SDS011;48440;51.224;22.506;2024-01-30T12:21:15;12.25;;;7.10;;
62401;SDS011;48440;51.224;22.506;2024-01-30T12:23:41;13.10;;;7.10;;
62401;SDS011;48440;51.224;22.506;2024-01-30T12:26:08;11.48;;;6.88;;
62401;SDS011;48440;51.224;22.506;2024-01-30T12:28:34;12.45;;;7.57;;
62401;SDS011;48440;51.224;22.506;2024-01-30T12:31:03;13.32;;;7.90;;
62401;SDS011;48440;51.224;22.506;2024-01-30T12:33:30;14.07;;;8.27;;
62401;SDS011;48440;51.224;22.506;2024-01-30T12:35:56;15.55;;;8.55;;
62401;SDS011;48440;51.224;22.506;2024-01-30T12:38:23;14.82;;;9.02;;
62401;SDS011;48440;51.224;22.506;2024-01-30T12:40:50;16.52;;;8.35;;
62401;SDS011;48440;51.224;22.506;2024-01-30T12:43:21;14.50;;;7.57;;
62401;SDS011;48440;51.224;22.506;2024-01-30T12:45:47;12.85;;;7.93;;
62401;SDS011;48440;51.224;22.506;2024-01-30T12:48:12;18.67;;;8.07;;
62401;SDS011;48440;51.224;22.506;2024-01-30T12:50:38;20.15;;;9.52;;
62401;SDS011;48440;51.224;22.506;2024-01-30T12:53:04;18.10;;;8.93;;
62401;SDS011;48440;51.224;22.506;2024-01-30T12:55:31;15.80;;;8.35;;
62401;SDS011;48440;51.224;22.506;2024-01-30T12:57:56;12.45;;;7.55;;
62401;SDS011;48440;51.224;22.506;2024-01-30T13:00:22;12.63;;;6.82;;
62401;SDS011;48440;51.224;22.506;2024-01-30T13:02:47;11.68;;;7.30;;
62401;SDS011;48440;51.224;22.506;2024-01-30T13:05:13;13.50;;;7.75;;
62401;SDS011;48440;51.224;22.506;2024-01-30T13:07:39;16.02;;;8.25;;
62401;SDS011;48440;51.224;22.506;2024-01-30T13:10:05;13.85;;;7.70;;
62401;SDS011;48440;51.224;22.506;2024-01-30T13:12:31;14.55;;;8.05;;
62401;SDS011;48440;51.224;22.506;2024-01-30T13:15:00;13.57;;;7.82;;
62401;SDS011;48440;51.224;22.506;2024-01-30T13:17:27;12.55;;;7.60;;
62401;SDS011;48440;51.224;22.506;2024-01-30T13:19:53;13.07;;;7.68;;
62401;SDS011;48440;51.224;22.506;2024-01-30T13:22:19;14.13;;;7.40;;
62401;SDS011;48440;51.224;22.506;2024-01-30T13:24:48;13.77;;;8.35;;
62401;SDS011;48440;51.224;22.506;2024-01-30T13:27:13;13.07;;;8.30;;
62401;SDS011;48440;51.224;22.506;2024-01-30T13:29:39;15.05;;;7.63;;
62401;SDS011;48440;51.224;22.506;2024-01-30T13:32:05;13.27;;;7.93;;
62401;SDS011;48440;51.224;22.506;2024-01-30T13:34:31;13.38;;;7.60;;
62401;SDS011;48440;51.224;22.506;2024-01-30T13:36:56;12.52;;;7.32;;
62401;SDS011;48440;51.224;22.506;2024-01-30T13:39:22;15.68;;;8.48;;
62401;SDS011;48440;51.224;22.506;2024-01-30T13:41:48;13.98;;;7.53;;
62401;SDS011;48440;51.224;22.506;2024-01-30T13:44:15;14.30;;;8.15;;
62401;SDS011;48440;51.224;22.506;2024-01-30T13:46:41;14.32;;;8.07;;
62401;SDS011;48440;51.224;22.506;2024-01-30T13:49:07;15.23;;;7.85;;
62401;SDS011;48440;51.224;22.506;2024-01-30T13:51:33;13.75;;;7.78;;
62401;SDS011;48440;51.224;22.506;2024-01-30T13:53:59;13.95;;;8.02;;
62401;SDS011;48440;51.224;22.506;2024-01-30T13:56:24;15.50;;;8.40;;
62401;SDS011;48440;51.224;22.506;2024-01-30T13:58:51;12.52;;;7.68;;
62401;SDS011;48440;51.224;22.506;2024-01-30T14:01:18;14.32;;;8.10;;
62401;SDS011;48440;51.224;22.506;2024-01-30T14:03:43;14.18;;;9.20;;
62401;SDS011;48440;51.224;22.506;2024-01-30T14:06:09;16.33;;;8.73;;
62401;SDS011;48440;51.224;22.506;2024-01-30T14:08:35;14.98;;;7.95;;
62401;SDS011;48440;51.224;22.506;2024-01-30T14:11:00;15.07;;;7.93;;
62401;SDS011;48440;51.224;22.506;2024-01-30T14:13:26;18.85;;;9.07;;
62401;SDS011;48440;51.224;22.506;2024-01-30T14:15:52;13.73;;;7.93;;
62401;SDS011;48440;51.224;22.506;2024-01-30T14:18:18;13.32;;;7.50;;
62401;SDS011;48440;51.224;22.506;2024-01-30T14:20:43;13.63;;;7.10;;
62401;SDS011;48440;51.224;22.506;2024-01-30T14:23:09;13.07;;;7.50;;
62401;SDS011;48440;51.224;22.506;2024-01-30T14:25:34;12.23;;;7.32;;
62401;SDS011;48440;51.224;22.506;2024-01-30T14:28:00;12.63;;;7.32;;
62401;SDS011;48440;51.224;22.506;2024-01-30T14:30:25;14.07;;;7.88;;
62401;SDS011;48440;51.224;22.506;2024-01-30T14:32:51;16.90;;;7.90;;